createdAt,value
2019-02-25T00:00:00.318Z,5.80
2019-02-25T00:02:32.144Z,5.70
2019-02-25T00:05:02.611Z,5.70
2019-02-25T00:07:32.905Z,5.80
2019-02-25T00:10:04.042Z,5.70
2019-02-25T00:12:34.590Z,5.70
2019-02-25T00:15:07.498Z,5.70
2019-02-25T00:17:40.101Z,5.70
2019-02-25T00:20:12.102Z,5.70
2019-02-25T00:22:42.521Z,5.70
2019-02-25T00:25:13.665Z,5.70
2019-02-25T00:27:43.940Z,5.70
2019-02-25T00:30:15.565Z,5.70
2019-02-25T00:32:45.941Z,5.70
2019-02-25T00:35:16.236Z,5.70
2019-02-25T00:37:46.656Z,5.70
2019-02-25T00:40:17.040Z,5.70
2019-02-25T00:42:47.412Z,5.70
2019-02-25T00:45:17.903Z,5.70
2019-02-25T00:47:48.349Z,5.70
2019-02-25T00:50:21.709Z,5.70
2019-02-25T00:52:52.201Z,5.70
2019-02-25T00:55:22.600Z,5.70
2019-02-25T00:57:52.873Z,5.80
2019-02-25T01:00:25.306Z,5.80
2019-02-25T01:02:55.757Z,5.80
2019-02-25T01:05:26.215Z,5.80
2019-02-25T01:07:56.776Z,5.80
2019-02-25T01:10:27.161Z,5.80
2019-02-25T01:12:57.523Z,5.80
2019-02-25T01:15:27.801Z,5.80
2019-02-25T01:17:59.957Z,5.80
2019-02-25T01:20:29.941Z,5.80
2019-02-25T01:23:00.258Z,5.80
2019-02-25T01:25:30.633Z,5.80
2019-02-25T01:28:01.030Z,5.80
2019-02-25T01:30:31.681Z,5.90
2019-02-25T01:33:02.402Z,5.90
2019-02-25T01:35:32.881Z,5.90
2019-02-25T01:38:03.342Z,6.00
2019-02-25T01:40:33.696Z,6.00
2019-02-25T01:43:04.195Z,6.00
2019-02-25T01:45:34.552Z,6.00
2019-02-25T01:48:04.933Z,6.00
2019-02-25T01:50:35.149Z,6.00
2019-02-25T01:53:05.677Z,6.10
2019-02-25T01:55:36.013Z,6.10
2019-02-25T01:58:06.452Z,6.10
2019-02-25T02:00:36.800Z,6.10
2019-02-25T02:03:07.123Z,6.10
2019-02-25T02:05:37.565Z,6.10
2019-02-25T02:08:07.792Z,6.10
2019-02-25T02:10:38.320Z,6.10
2019-02-25T02:13:14.139Z,6.10
2019-02-25T02:15:40.981Z,6.10
2019-02-25T02:18:11.341Z,6.10
2019-02-25T02:20:41.645Z,6.10
2019-02-25T02:23:11.917Z,6.10
2019-02-25T02:25:42.289Z,6.20
2019-02-25T02:28:12.808Z,6.10
2019-02-25T02:30:43.469Z,6.10
2019-02-25T02:33:13.843Z,6.10
2019-02-25T02:35:44.516Z,6.10
2019-02-25T02:38:15.073Z,6.10
2019-02-25T02:40:45.542Z,6.10
2019-02-25T02:43:15.874Z,6.10
2019-02-25T02:45:52.238Z,6.10
2019-02-25T02:48:34.341Z,6.10
2019-02-25T02:51:04.889Z,6.10
2019-02-25T02:53:35.354Z,6.00
2019-02-25T02:56:05.983Z,6.00
2019-02-25T02:58:37.033Z,6.00
2019-02-25T03:01:07.456Z,5.90
2019-02-25T03:03:38.264Z,5.90
2019-02-25T03:06:08.665Z,5.90
2019-02-25T03:08:39.129Z,5.90
2019-02-25T03:11:09.414Z,5.90
2019-02-25T03:13:39.998Z,5.80
2019-02-25T03:16:10.610Z,5.90
2019-02-25T03:18:41.068Z,5.90
2019-02-25T03:21:11.285Z,5.80
2019-02-25T03:23:41.713Z,5.80
2019-02-25T03:26:12.080Z,5.80
2019-02-25T03:28:42.506Z,5.80
2019-02-25T03:31:12.806Z,5.80
2019-02-25T03:33:43.378Z,5.70
2019-02-25T03:36:13.945Z,5.70
2019-02-25T03:38:44.331Z,5.60
2019-02-25T03:41:15.021Z,5.60
2019-02-25T03:43:45.535Z,5.60
2019-02-25T03:46:16.037Z,5.60
2019-02-25T03:48:46.430Z,5.60
2019-02-25T03:51:16.827Z,5.60
2019-02-25T03:53:47.393Z,5.60
2019-02-25T03:56:17.096Z,5.60
2019-02-25T03:58:47.536Z,5.60
2019-02-25T04:01:18.250Z,5.70
2019-02-25T04:03:48.994Z,5.60
2019-02-25T04:06:19.739Z,5.70
2019-02-25T04:08:50.340Z,5.70
2019-02-25T04:11:20.966Z,5.70
2019-02-25T04:13:51.728Z,5.70
2019-02-25T04:16:22.290Z,5.70
2019-02-25T04:18:52.644Z,5.70
2019-02-25T04:21:23.120Z,5.80
2019-02-25T04:24:05.974Z,5.80
2019-02-25T04:26:36.418Z,5.80
2019-02-25T04:29:06.710Z,5.80
2019-02-25T04:31:37.560Z,5.80
2019-02-25T04:34:07.923Z,5.80
2019-02-25T04:36:38.277Z,5.90
2019-02-25T04:39:08.584Z,5.90
2019-02-25T04:41:39.061Z,5.90
2019-02-25T04:44:09.440Z,6.00
2019-02-25T04:46:39.927Z,6.00
2019-02-25T04:49:10.297Z,6.00
2019-02-25T04:51:40.629Z,6.00
2019-02-25T04:54:11.121Z,6.10
2019-02-25T04:56:41.617Z,6.10
2019-02-25T04:59:11.948Z,6.10
2019-02-25T05:01:42.318Z,6.20
2019-02-25T05:04:12.971Z,6.20
2019-02-25T05:06:43.413Z,6.20
2019-02-25T05:09:13.728Z,6.20
2019-02-25T05:11:44.716Z,6.20
2019-02-25T05:14:15.021Z,6.20
2019-02-25T05:16:45.307Z,6.20
2019-02-25T05:19:15.661Z,6.30
2019-02-25T05:21:46.272Z,6.30
2019-02-25T05:24:16.796Z,6.30
2019-02-25T05:26:47.229Z,6.30
2019-02-25T05:29:17.797Z,6.30
2019-02-25T05:31:48.229Z,6.30
2019-02-25T05:34:18.546Z,6.30
2019-02-25T05:36:50.554Z,6.30
2019-02-25T05:39:21.037Z,6.40
2019-02-25T05:41:51.753Z,6.40
2019-02-25T05:44:22.272Z,6.40
2019-02-25T05:46:52.710Z,6.40
2019-02-25T05:49:23.176Z,6.40
2019-02-25T05:51:53.717Z,6.40
2019-02-25T05:54:24.439Z,6.50
2019-02-25T05:56:55.064Z,6.70
2019-02-25T05:59:25.811Z,6.80
2019-02-25T06:01:56.796Z,6.70
2019-02-25T06:04:27.353Z,6.70
2019-02-25T06:06:57.836Z,6.60
2019-02-25T06:09:28.399Z,6.50
2019-02-25T06:11:59.049Z,6.50
2019-02-25T06:14:29.465Z,6.50
2019-02-25T06:16:59.911Z,6.50
2019-02-25T06:19:30.410Z,6.50
2019-02-25T06:22:00.882Z,6.50
2019-02-25T06:24:31.330Z,6.50
2019-02-25T06:27:02.206Z,6.50
2019-02-25T06:29:32.680Z,6.50
2019-02-25T06:32:03.212Z,6.50
2019-02-25T06:34:33.793Z,6.60
2019-02-25T06:37:04.599Z,6.50
2019-02-25T06:39:35.260Z,6.60
2019-02-25T06:42:05.842Z,6.50
2019-02-25T06:44:36.353Z,6.50
2019-02-25T06:47:06.840Z,6.60
2019-02-25T06:49:37.412Z,6.60
2019-02-25T06:52:07.705Z,6.60
2019-02-25T06:54:38.270Z,6.60
2019-02-25T06:57:08.556Z,6.60
2019-02-25T06:59:38.937Z,6.60
2019-02-25T07:02:09.351Z,6.60
2019-02-25T07:04:43.007Z,6.50
2019-02-25T07:07:15.033Z,6.50
2019-02-25T07:09:53.190Z,6.50
2019-02-25T07:12:34.099Z,6.50
2019-02-25T07:15:10.689Z,6.50
2019-02-25T07:17:42.805Z,6.60
2019-02-25T07:20:17.654Z,6.60
2019-02-25T07:22:52.473Z,6.70
2019-02-25T07:25:27.676Z,6.70
2019-02-25T07:28:08.777Z,6.70
2019-02-25T07:30:41.003Z,6.70
2019-02-25T07:33:16.234Z,6.70
2019-02-25T07:36:00.530Z,6.70
2019-02-25T07:38:39.701Z,6.70
2019-02-25T07:41:26.768Z,6.80
2019-02-25T07:44:07.504Z,6.80
2019-02-25T07:46:42.702Z,6.90
2019-02-25T07:49:15.064Z,6.90
2019-02-25T07:51:52.952Z,7.00
2019-02-25T07:54:25.316Z,7.10
2019-02-25T07:56:59.849Z,7.20
2019-02-25T07:59:43.786Z,7.20
2019-02-25T08:02:21.952Z,7.30
2019-02-25T08:04:54.134Z,7.30
2019-02-25T08:07:29.144Z,7.30
2019-02-25T08:10:03.923Z,7.40
2019-02-25T08:12:39.293Z,7.40
2019-02-25T08:15:20.690Z,7.30
2019-02-25T08:17:52.917Z,7.40
2019-02-25T08:20:31.117Z,7.40
2019-02-25T08:23:03.221Z,7.50
2019-02-25T08:25:35.445Z,7.50
2019-02-25T08:28:13.592Z,7.50
2019-02-25T08:30:54.567Z,7.50
2019-02-25T08:33:41.904Z,7.50
2019-02-25T08:36:32.930Z,7.60
2019-02-25T08:39:20.020Z,7.60
2019-02-25T08:42:06.862Z,7.60
2019-02-25T08:44:39.077Z,7.60
2019-02-25T08:47:11.051Z,7.60
2019-02-25T08:49:43.246Z,7.60
2019-02-25T08:52:13.826Z,7.70
2019-02-25T08:54:44.496Z,7.70
2019-02-25T08:57:14.942Z,7.80
2019-02-25T08:59:45.807Z,7.80
2019-02-25T09:02:16.225Z,7.90
2019-02-25T09:04:49.142Z,8.00
2019-02-25T09:07:19.196Z,8.00
2019-02-25T09:09:49.649Z,8.00
2019-02-25T09:12:20.053Z,8.10
2019-02-25T09:14:50.683Z,8.10
2019-02-25T09:17:21.193Z,8.10
2019-02-25T09:19:51.720Z,8.10
2019-02-25T09:22:22.185Z,8.20
2019-02-25T09:24:52.625Z,8.20
2019-02-25T09:27:23.202Z,8.30
2019-02-25T09:29:53.761Z,8.30
2019-02-25T09:32:24.298Z,8.40
2019-02-25T09:34:54.869Z,8.40
2019-02-25T09:37:25.279Z,8.40
2019-02-25T09:39:55.840Z,8.40
2019-02-25T09:42:26.312Z,8.50
2019-02-25T09:44:58.305Z,8.50
2019-02-25T09:47:28.773Z,8.50
2019-02-25T09:49:59.393Z,8.50
2019-02-25T09:52:29.668Z,8.50
2019-02-25T09:55:00.268Z,8.50
2019-02-25T09:57:30.704Z,8.60
2019-02-25T10:00:01.162Z,8.60
2019-02-25T10:02:31.461Z,8.70
2019-02-25T10:05:02.071Z,8.70
2019-02-25T10:07:32.517Z,8.70
2019-02-25T10:10:03.051Z,8.80
2019-02-25T10:12:33.774Z,8.90
2019-02-25T10:15:06.741Z,9.00
2019-02-25T10:17:37.430Z,9.10
2019-02-25T10:20:09.382Z,9.10
2019-02-25T10:22:39.780Z,9.30
2019-02-25T10:25:11.382Z,9.50
2019-02-25T10:27:41.977Z,9.80
2019-02-25T10:30:18.234Z,9.80
2019-02-25T10:32:48.715Z,9.70
2019-02-25T10:35:21.541Z,9.80
2019-02-25T10:37:52.143Z,9.90
2019-02-25T10:40:24.763Z,10.00
2019-02-25T10:42:54.706Z,10.00
2019-02-25T10:45:25.268Z,10.00
2019-02-25T10:47:58.679Z,10.00
2019-02-25T10:50:28.900Z,10.10
2019-02-25T10:53:03.431Z,10.20
2019-02-25T10:55:44.453Z,10.20
2019-02-25T10:58:13.394Z,10.30
2019-02-25T11:00:45.950Z,10.50
2019-02-25T11:03:17.841Z,10.50
2019-02-25T11:05:47.954Z,10.60
2019-02-25T11:08:19.959Z,10.80
2019-02-25T11:10:58.368Z,10.90
2019-02-25T11:13:29.765Z,11.10
2019-02-25T11:16:01.221Z,11.10
2019-02-25T11:18:31.753Z,11.00
2019-02-25T11:21:03.627Z,10.80
2019-02-25T11:23:34.396Z,10.60
2019-02-25T11:26:05.045Z,10.90
2019-02-25T11:28:36.613Z,11.10
2019-02-25T11:31:07.975Z,11.10
2019-02-25T11:33:38.492Z,11.10
2019-02-25T11:36:10.627Z,11.10
2019-02-25T11:38:41.105Z,10.80
2019-02-25T11:41:11.694Z,10.90
2019-02-25T11:43:44.104Z,10.90
2019-02-25T11:46:14.550Z,10.80
2019-02-25T11:48:45.129Z,10.90
2019-02-25T11:51:15.894Z,11.10
2019-02-25T11:53:46.479Z,11.20
2019-02-25T11:56:16.980Z,11.30
2019-02-25T11:58:47.588Z,11.50
2019-02-25T12:01:18.173Z,11.40
2019-02-25T12:03:48.742Z,11.60
2019-02-25T12:06:19.331Z,11.60
2019-02-25T12:08:49.687Z,11.70
2019-02-25T12:11:20.176Z,11.80
2019-02-25T12:13:50.829Z,11.80
2019-02-25T12:16:21.768Z,12.00
2019-02-25T12:18:52.470Z,12.10
2019-02-25T12:21:22.976Z,12.00
2019-02-25T12:23:53.605Z,12.10
2019-02-25T12:26:24.009Z,12.30
2019-02-25T12:28:54.492Z,12.50
2019-02-25T12:31:25.128Z,12.30
2019-02-25T12:33:55.657Z,12.20
2019-02-25T12:36:26.127Z,12.20
2019-02-25T12:38:56.570Z,12.00
2019-02-25T12:41:27.419Z,12.00
2019-02-25T12:43:57.882Z,11.90
2019-02-25T12:46:28.369Z,12.00
2019-02-25T12:48:58.969Z,12.10
2019-02-25T12:51:29.517Z,12.50
2019-02-25T12:54:00.209Z,12.60
2019-02-25T12:56:30.802Z,12.70
2019-02-25T12:59:01.292Z,12.70
2019-02-25T13:01:31.739Z,12.60
2019-02-25T13:04:02.275Z,12.80
2019-02-25T13:06:32.856Z,12.80
2019-02-25T13:09:04.827Z,12.80
2019-02-25T13:11:35.133Z,12.60
2019-02-25T13:14:05.741Z,12.70
2019-02-25T13:16:36.333Z,12.70
2019-02-25T13:19:06.692Z,12.80
2019-02-25T13:21:37.267Z,12.80
2019-02-25T13:24:09.835Z,12.70
2019-02-25T13:26:39.940Z,12.60
2019-02-25T13:29:11.284Z,12.60
2019-02-25T13:31:41.847Z,12.40
2019-02-25T13:34:12.332Z,12.40
2019-02-25T13:36:42.896Z,12.40
2019-02-25T13:39:13.454Z,12.30
2019-02-25T13:41:44.019Z,12.40
2019-02-25T13:44:14.501Z,12.30
2019-02-25T13:46:45.131Z,12.40
2019-02-25T13:49:15.705Z,12.30
2019-02-25T13:51:46.367Z,12.30
2019-02-25T13:54:16.798Z,12.20
2019-02-25T13:56:47.467Z,12.10
2019-02-25T13:59:18.047Z,12.10
2019-02-25T14:01:48.692Z,12.00
2019-02-25T14:04:19.165Z,11.90
2019-02-25T14:06:50.309Z,11.90
2019-02-25T14:09:20.788Z,11.80
2019-02-25T14:11:51.341Z,11.70
2019-02-25T14:14:21.909Z,11.70
2019-02-25T14:16:52.501Z,11.70
2019-02-25T14:19:23.055Z,11.60
2019-02-25T14:21:56.027Z,11.60
2019-02-25T14:24:25.843Z,11.50
2019-02-25T14:26:56.517Z,11.40
2019-02-25T14:29:27.037Z,11.30
2019-02-25T14:31:57.653Z,11.30
2019-02-25T14:34:28.296Z,11.20
2019-02-25T14:37:00.232Z,11.20
2019-02-25T14:39:32.850Z,11.20
2019-02-25T14:42:04.297Z,11.10
2019-02-25T14:44:37.905Z,11.00
2019-02-25T14:47:19.575Z,10.90
2019-02-25T14:49:42.777Z,10.80
2019-02-25T14:52:12.694Z,10.80
2019-02-25T14:54:43.258Z,10.70
2019-02-25T14:57:13.759Z,10.60
2019-02-25T14:59:44.410Z,10.60
2019-02-25T15:02:15.406Z,10.50
2019-02-25T15:04:46.014Z,10.40
2019-02-25T15:07:16.619Z,10.30
2019-02-25T15:09:47.117Z,10.20
2019-02-25T15:12:17.705Z,10.10
2019-02-25T15:14:48.346Z,10.10
2019-02-25T15:17:18.799Z,10.00
2019-02-25T15:19:49.387Z,10.00
2019-02-25T15:22:19.837Z,9.80
2019-02-25T15:24:50.416Z,9.70
2019-02-25T15:27:22.553Z,9.70
2019-02-25T15:29:52.973Z,9.60
2019-02-25T15:32:23.729Z,9.50
2019-02-25T15:34:55.543Z,9.40
2019-02-25T15:37:26.557Z,9.40
2019-02-25T15:39:57.083Z,9.30
2019-02-25T15:42:28.382Z,9.20
2019-02-25T15:44:59.947Z,9.20
2019-02-25T15:47:30.427Z,9.10
2019-02-25T15:50:03.723Z,9.10
2019-02-25T15:52:39.742Z,9.00
2019-02-25T15:55:16.802Z,8.90
2019-02-25T15:57:47.161Z,8.90
2019-02-25T16:00:23.303Z,8.70
2019-02-25T16:02:55.365Z,8.70
2019-02-25T16:05:27.326Z,8.60
2019-02-25T16:08:00.683Z,8.50
2019-02-25T16:10:31.430Z,8.40
2019-02-25T16:13:04.592Z,8.40
2019-02-25T16:15:34.851Z,8.40
2019-02-25T16:18:05.484Z,8.30
2019-02-25T16:20:36.055Z,8.30
2019-02-25T16:23:08.227Z,8.30
2019-02-25T16:25:39.026Z,8.20
2019-02-25T16:28:10.496Z,8.10
2019-02-25T16:30:42.910Z,8.10
2019-02-25T16:33:14.559Z,8.10
2019-02-25T16:35:46.123Z,8.00
2019-02-25T16:38:16.793Z,8.00
2019-02-25T16:40:47.318Z,7.90
2019-02-25T16:43:19.007Z,7.90
2019-02-25T16:45:49.655Z,7.90
2019-02-25T16:48:23.656Z,7.80
2019-02-25T16:50:52.311Z,7.80
2019-02-25T16:53:22.767Z,7.70
2019-02-25T16:55:53.333Z,7.70
2019-02-25T16:58:25.093Z,7.70
2019-02-25T17:00:58.114Z,7.60
2019-02-25T17:03:27.899Z,7.60
2019-02-25T17:05:58.324Z,7.60
2019-02-25T17:08:30.352Z,7.60
2019-02-25T17:11:00.717Z,7.60
2019-02-25T17:13:33.072Z,7.60
2019-02-25T17:16:03.390Z,7.60
2019-02-25T17:18:33.759Z,7.60
2019-02-25T17:21:05.167Z,7.50
2019-02-25T17:23:37.103Z,7.40
2019-02-25T17:26:10.535Z,7.40
2019-02-25T17:28:40.593Z,7.40
2019-02-25T17:31:11.538Z,7.30
2019-02-25T17:33:43.149Z,7.30
2019-02-25T17:36:14.679Z,7.20
2019-02-25T17:38:47.392Z,7.20
2019-02-25T17:41:17.675Z,7.10
2019-02-25T17:43:48.162Z,7.10
2019-02-25T17:46:18.601Z,7.00
2019-02-25T17:48:49.223Z,6.90
2019-02-25T17:51:20.853Z,6.90
2019-02-25T17:53:52.681Z,6.90
2019-02-25T17:56:25.220Z,7.00
2019-02-25T17:58:56.046Z,7.00
2019-02-25T18:01:28.008Z,7.00
2019-02-25T18:03:59.868Z,7.10
2019-02-25T18:06:31.930Z,7.10
2019-02-25T18:09:03.077Z,7.10
2019-02-25T18:11:33.521Z,7.10
2019-02-25T18:14:04.085Z,7.20
2019-02-25T18:16:35.382Z,7.20
2019-02-25T18:19:06.441Z,7.20
2019-02-25T18:21:36.882Z,7.20
2019-02-25T18:24:07.173Z,7.20
2019-02-25T18:26:37.699Z,7.20
2019-02-25T18:29:09.409Z,7.20
2019-02-25T18:31:40.161Z,7.10
2019-02-25T18:34:11.710Z,7.10
2019-02-25T18:36:45.175Z,7.10
2019-02-25T18:39:15.301Z,7.00
2019-02-25T18:41:47.949Z,7.10
2019-02-25T18:44:18.160Z,7.10
2019-02-25T18:46:49.901Z,7.00
2019-02-25T18:49:20.624Z,7.00
2019-02-25T18:51:51.125Z,7.00
2019-02-25T18:54:22.922Z,7.00
2019-02-25T18:56:53.742Z,7.10
2019-02-25T18:59:24.353Z,7.10
2019-02-25T19:01:54.725Z,7.10
2019-02-25T19:04:25.313Z,7.10
2019-02-25T19:06:55.745Z,7.10
2019-02-25T19:09:27.662Z,7.10
2019-02-25T19:11:58.290Z,7.10
2019-02-25T19:14:29.367Z,7.10
2019-02-25T19:17:02.104Z,7.10
2019-02-25T19:19:34.217Z,7.10
2019-02-25T19:22:05.961Z,7.10
2019-02-25T19:24:39.849Z,7.10
2019-02-25T19:27:09.303Z,7.10
2019-02-25T19:29:40.546Z,7.20
2019-02-25T19:32:11.049Z,7.30
2019-02-25T19:34:41.721Z,7.30
2019-02-25T19:37:14.127Z,7.30
2019-02-25T19:39:46.200Z,7.30
2019-02-25T19:42:18.239Z,7.30
2019-02-25T19:44:48.617Z,7.30
2019-02-25T19:47:19.389Z,7.40
2019-02-25T19:49:49.965Z,7.30
2019-02-25T19:52:20.737Z,7.30
2019-02-25T19:54:51.199Z,7.40
2019-02-25T19:57:23.636Z,7.40
2019-02-25T19:59:56.198Z,7.40
2019-02-25T20:02:27.118Z,7.40
2019-02-25T20:04:58.153Z,7.40
2019-02-25T20:07:30.932Z,7.40
2019-02-25T20:10:00.497Z,7.40
2019-02-25T20:12:30.853Z,7.40
2019-02-25T20:15:01.201Z,7.40
2019-02-25T20:17:32.689Z,7.40
2019-02-25T20:20:04.940Z,7.40
2019-02-25T20:22:36.625Z,7.40
2019-02-25T20:25:10.802Z,7.40
2019-02-25T20:27:41.798Z,7.30
2019-02-25T20:30:19.180Z,7.30
2019-02-25T20:32:49.666Z,7.30
2019-02-25T20:35:21.997Z,7.30
2019-02-25T20:37:53.770Z,7.30
2019-02-25T20:40:26.668Z,7.20
2019-02-25T20:42:58.174Z,7.20
2019-02-25T20:45:35.831Z,7.10
2019-02-25T20:48:06.429Z,7.10
2019-02-25T20:50:36.773Z,7.10
2019-02-25T20:53:09.192Z,7.10
2019-02-25T20:55:39.213Z,7.00
2019-02-25T20:58:11.455Z,7.00
2019-02-25T21:00:43.994Z,7.00
2019-02-25T21:03:15.992Z,7.00
2019-02-25T21:05:46.040Z,7.00
2019-02-25T21:08:17.374Z,7.00
2019-02-25T21:10:48.717Z,7.00
2019-02-25T21:13:19.012Z,7.00
2019-02-25T21:15:49.501Z,7.00
2019-02-25T21:18:20.344Z,6.90
2019-02-25T21:20:53.642Z,6.90
2019-02-25T21:23:23.613Z,7.00
2019-02-25T21:25:57.495Z,6.90
2019-02-25T21:28:29.035Z,6.90
2019-02-25T21:30:58.109Z,6.90
2019-02-25T21:33:30.347Z,6.90
2019-02-25T21:36:00.539Z,6.90
2019-02-25T21:38:31.053Z,6.80
2019-02-25T21:41:01.448Z,6.80
2019-02-25T21:43:31.825Z,6.80
2019-02-25T21:46:02.290Z,6.70
2019-02-25T21:48:34.703Z,6.70
2019-02-25T21:51:06.991Z,6.70
2019-02-25T21:53:36.665Z,6.70
2019-02-25T21:56:07.012Z,6.70
2019-02-25T21:58:37.495Z,6.60
2019-02-25T22:01:08.106Z,6.60
2019-02-25T22:03:41.274Z,6.60
2019-02-25T22:06:10.533Z,6.60
2019-02-25T22:08:40.976Z,6.60
2019-02-25T22:11:14.791Z,6.60
2019-02-25T22:13:43.384Z,6.50
2019-02-25T22:16:13.794Z,6.50
2019-02-25T22:18:44.094Z,6.50
2019-02-25T22:21:16.608Z,6.50
2019-02-25T22:23:46.342Z,6.50
2019-02-25T22:26:16.666Z,6.40
2019-02-25T22:28:47.165Z,6.40
2019-02-25T22:31:18.141Z,6.40
2019-02-25T22:33:48.687Z,6.40
2019-02-25T22:36:19.076Z,6.40
2019-02-25T22:38:49.374Z,6.40
2019-02-25T22:41:20.565Z,6.30
2019-02-25T22:43:51.998Z,6.30
2019-02-25T22:46:25.874Z,6.30
2019-02-25T22:48:54.458Z,6.30
2019-02-25T22:51:27.824Z,6.30
2019-02-25T22:53:56.866Z,6.30
2019-02-25T22:56:28.068Z,6.30
2019-02-25T22:59:00.329Z,6.30
2019-02-25T23:01:30.610Z,6.30
2019-02-25T23:04:01.050Z,6.30
2019-02-25T23:06:31.559Z,6.20
2019-02-25T23:09:02.150Z,6.20
2019-02-25T23:11:32.459Z,6.30
2019-02-25T23:14:03.512Z,6.30
2019-02-25T23:16:33.958Z,6.30
2019-02-25T23:19:04.420Z,6.30
2019-02-25T23:21:36.140Z,6.30
2019-02-25T23:24:07.384Z,6.30
2019-02-25T23:26:37.926Z,6.30
2019-02-25T23:29:08.575Z,6.30
2019-02-25T23:31:39.195Z,6.30
2019-02-25T23:34:10.292Z,6.30
2019-02-25T23:36:44.820Z,6.20
2019-02-25T23:39:17.124Z,6.30
2019-02-25T23:41:46.318Z,6.30
2019-02-25T23:44:19.755Z,6.20
2019-02-25T23:46:50.139Z,6.30
2019-02-25T23:49:27.246Z,6.30
2019-02-25T23:51:54.130Z,6.30
2019-02-25T23:54:27.349Z,6.30
2019-02-25T23:56:57.894Z,6.30
2019-02-25T23:59:28.514Z,6.30
